createdAt,value
2023-11-30T00:00:19.828Z,64.51
2023-11-30T00:00:52.358Z,64.73
2023-11-30T00:01:25.327Z,64.53
2023-11-30T00:01:57.949Z,65.69
2023-11-30T00:02:33.283Z,64.63
2023-11-30T00:03:05.868Z,64.18
2023-11-30T00:03:38.498Z,64.22
2023-11-30T00:04:11.070Z,64.00
2023-11-30T00:04:43.652Z,64.66
2023-11-30T00:05:16.173Z,64.55
2023-11-30T00:05:48.698Z,64.17
2023-11-30T00:06:21.292Z,64.01
2023-11-30T00:06:53.803Z,63.93
2023-11-30T00:07:26.315Z,63.19
2023-11-30T00:07:58.846Z,62.70
2023-11-30T00:08:31.370Z,62.68
2023-11-30T00:09:04.575Z,62.96
2023-11-30T00:09:37.607Z,63.01
2023-11-30T00:10:10.216Z,62.94
2023-11-30T00:10:42.713Z,64.00
2023-11-30T00:11:15.234Z,63.51
2023-11-30T00:11:47.787Z,62.84
2023-11-30T00:12:20.316Z,63.07
2023-11-30T00:12:52.804Z,63.84
2023-11-30T00:13:25.309Z,63.23
2023-11-30T00:13:57.881Z,63.13
2023-11-30T00:14:31.565Z,63.49
2023-11-30T00:15:04.310Z,64.14
2023-11-30T00:15:36.849Z,64.82
2023-11-30T00:16:09.501Z,63.14
2023-11-30T00:16:42.051Z,62.48
2023-11-30T00:17:14.568Z,62.52
2023-11-30T00:17:47.175Z,62.24
2023-11-30T00:18:19.745Z,62.62
2023-11-30T00:18:52.321Z,63.08
2023-11-30T00:19:24.841Z,62.80
2023-11-30T00:19:57.320Z,62.69
2023-11-30T00:20:29.802Z,62.47
2023-11-30T00:21:02.352Z,62.29
2023-11-30T00:21:34.887Z,62.38
2023-11-30T00:22:07.361Z,63.12
2023-11-30T00:22:40.278Z,62.63
2023-11-30T00:23:12.902Z,62.23
2023-11-30T00:23:45.445Z,62.09
2023-11-30T00:24:17.936Z,62.87
2023-11-30T00:24:50.472Z,62.30
2023-11-30T00:25:23.003Z,62.82
2023-11-30T00:25:55.546Z,62.85
2023-11-30T00:26:28.100Z,62.87
2023-11-30T00:27:00.645Z,62.35
2023-11-30T00:27:33.170Z,62.23
2023-11-30T00:28:05.693Z,62.16
2023-11-30T00:28:38.194Z,62.29
2023-11-30T00:29:10.801Z,62.32
2023-11-30T00:29:43.343Z,62.70
2023-11-30T00:30:16.325Z,62.78
2023-11-30T00:30:48.852Z,62.67
2023-11-30T00:31:21.418Z,62.73
2023-11-30T00:31:54.039Z,62.93
2023-11-30T00:32:26.557Z,62.66
2023-11-30T00:32:59.176Z,62.62
2023-11-30T00:33:31.752Z,62.04
2023-11-30T00:34:04.297Z,62.45
2023-11-30T00:34:36.832Z,62.36
2023-11-30T00:35:09.401Z,62.27
2023-11-30T00:35:41.979Z,61.99
2023-11-30T00:36:14.542Z,62.53
2023-11-30T00:36:47.121Z,62.50
2023-11-30T00:37:19.656Z,62.08
2023-11-30T00:37:52.229Z,62.15
2023-11-30T00:38:24.779Z,62.19
2023-11-30T00:38:57.332Z,62.71
2023-11-30T00:39:29.911Z,62.12
2023-11-30T00:40:02.517Z,61.74
2023-11-30T00:40:35.306Z,61.81
2023-11-30T00:41:08.244Z,61.55
2023-11-30T00:41:40.720Z,62.39
2023-11-30T00:42:13.329Z,62.92
2023-11-30T00:42:45.961Z,63.16
2023-11-30T00:43:18.662Z,63.37
2023-11-30T00:43:51.178Z,63.67
2023-11-30T00:44:23.875Z,64.20
2023-11-30T00:44:56.477Z,63.37
2023-11-30T00:45:29.051Z,62.41
2023-11-30T00:46:09.366Z,62.65
2023-11-30T00:46:42.695Z,63.94
2023-11-30T00:47:15.452Z,63.14
2023-11-30T00:47:48.071Z,63.16
2023-11-30T00:48:20.754Z,62.77
2023-11-30T00:48:53.318Z,62.54
2023-11-30T00:49:25.852Z,63.52
2023-11-30T00:49:58.392Z,62.88
2023-11-30T00:50:30.909Z,62.79
2023-11-30T00:51:03.451Z,62.45
2023-11-30T00:51:36.206Z,62.10
2023-11-30T00:52:08.699Z,61.74
2023-11-30T00:52:41.222Z,62.20
2023-11-30T00:53:13.729Z,62.18
2023-11-30T00:53:46.209Z,62.09
2023-11-30T00:54:18.726Z,61.51
2023-11-30T00:54:51.210Z,61.41
2023-11-30T00:55:23.746Z,61.81
2023-11-30T00:55:56.422Z,63.23
2023-11-30T00:56:28.919Z,61.76
2023-11-30T00:57:01.422Z,61.51
2023-11-30T00:57:34.032Z,61.59
2023-11-30T00:58:06.566Z,62.44
2023-11-30T00:58:39.089Z,62.65
2023-11-30T00:59:11.628Z,62.74
2023-11-30T00:59:44.152Z,62.50
2023-11-30T01:00:17.164Z,62.34
2023-11-30T01:00:50.080Z,62.04
2023-11-30T01:01:22.627Z,62.21
2023-11-30T01:01:55.287Z,62.49
2023-11-30T01:02:28.115Z,62.43
2023-11-30T01:03:00.710Z,62.21
2023-11-30T01:03:33.371Z,62.36
2023-11-30T01:04:06.074Z,62.24
2023-11-30T01:04:42.636Z,62.47
2023-11-30T01:05:15.167Z,62.52
2023-11-30T01:05:47.744Z,62.30
2023-11-30T01:06:20.325Z,63.01
2023-11-30T01:06:52.818Z,62.43
2023-11-30T01:07:25.312Z,62.44
2023-11-30T01:07:57.965Z,62.37
2023-11-30T01:08:30.493Z,62.24
2023-11-30T01:09:03.033Z,63.01
2023-11-30T01:09:38.095Z,62.49
2023-11-30T01:10:10.801Z,62.21
2023-11-30T01:10:43.928Z,62.01
2023-11-30T01:11:16.414Z,62.46
2023-11-30T01:11:48.953Z,61.31
2023-11-30T01:12:21.513Z,61.54
2023-11-30T01:12:54.029Z,61.36
2023-11-30T01:13:26.625Z,61.71
2023-11-30T01:13:59.115Z,62.88
2023-11-30T01:14:31.583Z,64.87
2023-11-30T01:15:05.328Z,62.59
2023-11-30T01:15:37.903Z,61.24
2023-11-30T01:16:10.667Z,61.37
2023-11-30T01:16:43.213Z,62.37
2023-11-30T01:17:16.006Z,61.89
2023-11-30T01:17:48.632Z,61.57
2023-11-30T01:18:21.308Z,60.97
2023-11-30T01:18:53.914Z,60.75
2023-11-30T01:19:26.449Z,60.86
2023-11-30T01:19:59.028Z,60.63
2023-11-30T01:20:33.867Z,59.80
2023-11-30T01:21:06.826Z,60.19
2023-11-30T01:21:39.361Z,60.72
2023-11-30T01:22:13.136Z,60.65
2023-11-30T01:22:45.681Z,60.28
2023-11-30T01:23:18.231Z,60.46
2023-11-30T01:23:51.216Z,60.57
2023-11-30T01:24:24.271Z,60.90
2023-11-30T01:24:56.810Z,60.32
2023-11-30T01:25:29.313Z,59.97
2023-11-30T01:26:03.994Z,59.94
2023-11-30T01:26:36.601Z,59.97
2023-11-30T01:27:09.259Z,60.15
2023-11-30T01:27:41.828Z,60.10
2023-11-30T01:28:14.360Z,59.94
2023-11-30T01:28:46.852Z,60.23
2023-11-30T01:29:19.372Z,59.85
2023-11-30T01:29:51.921Z,60.29
2023-11-30T01:30:24.500Z,61.13
2023-11-30T01:30:57.042Z,60.95
2023-11-30T01:31:29.589Z,61.21
2023-11-30T01:32:02.089Z,61.68
2023-11-30T01:32:34.808Z,61.56
2023-11-30T01:33:07.405Z,61.65
2023-11-30T01:33:40.031Z,61.75
2023-11-30T01:34:12.731Z,60.59
2023-11-30T01:34:45.244Z,60.32
2023-11-30T01:35:18.272Z,60.27
2023-11-30T01:35:50.938Z,60.12
2023-11-30T01:36:23.522Z,60.12
2023-11-30T01:36:56.180Z,60.31
2023-11-30T01:37:28.729Z,60.02
2023-11-30T01:38:01.286Z,60.22
2023-11-30T01:38:33.793Z,60.15
2023-11-30T01:39:06.306Z,59.89
2023-11-30T01:39:38.853Z,59.80
2023-11-30T01:40:11.564Z,60.03
2023-11-30T01:40:44.117Z,59.77
2023-11-30T01:41:16.682Z,59.90
2023-11-30T01:41:49.240Z,61.08
2023-11-30T01:42:22.765Z,61.39
2023-11-30T01:42:55.544Z,60.28
2023-11-30T01:43:28.683Z,60.60
2023-11-30T01:44:01.186Z,60.42
2023-11-30T01:44:33.714Z,60.07
2023-11-30T01:45:06.712Z,60.18
2023-11-30T01:45:39.380Z,60.08
2023-11-30T01:46:12.199Z,59.90
2023-11-30T01:46:44.769Z,60.44
2023-11-30T01:47:17.712Z,60.19
2023-11-30T01:47:50.407Z,59.90
2023-11-30T01:48:23.184Z,59.95
2023-11-30T01:48:56.060Z,60.16
2023-11-30T01:49:28.881Z,61.22
2023-11-30T01:50:02.474Z,60.63
2023-11-30T01:50:35.144Z,60.18
2023-11-30T01:51:09.733Z,60.57
2023-11-30T01:51:42.783Z,60.88
2023-11-30T01:52:15.534Z,60.88
2023-11-30T01:52:48.335Z,61.89
2023-11-30T01:53:20.865Z,61.38
2023-11-30T01:53:55.045Z,60.86
2023-11-30T01:54:28.505Z,60.70
2023-11-30T01:55:03.521Z,60.76
2023-11-30T01:55:37.017Z,60.83
2023-11-30T01:56:11.998Z,60.70
2023-11-30T01:56:44.794Z,60.70
2023-11-30T01:57:17.404Z,60.59
2023-11-30T01:57:49.978Z,60.52
2023-11-30T01:58:22.540Z,60.53
2023-11-30T01:58:55.198Z,60.48
2023-11-30T01:59:28.370Z,60.55
2023-11-30T02:00:01.191Z,60.58
2023-11-30T02:00:34.039Z,60.33
2023-11-30T02:01:08.099Z,60.37
2023-11-30T02:01:42.479Z,60.37
2023-11-30T02:02:17.519Z,60.39
2023-11-30T02:02:50.504Z,60.23
2023-11-30T02:03:26.149Z,60.51
2023-11-30T02:04:08.807Z,61.44
2023-11-30T02:04:45.370Z,60.72
2023-11-30T02:05:17.967Z,60.65
2023-11-30T02:05:52.737Z,61.44
2023-11-30T02:06:25.374Z,62.05
2023-11-30T02:06:58.394Z,61.67
2023-11-30T02:07:30.902Z,60.98
2023-11-30T02:08:03.402Z,61.08
2023-11-30T02:08:36.034Z,61.36
2023-11-30T02:09:08.609Z,62.05
2023-11-30T02:09:41.145Z,61.65
2023-11-30T02:10:13.669Z,61.73
2023-11-30T02:10:46.251Z,61.52
2023-11-30T02:11:18.806Z,61.54
2023-11-30T02:11:51.325Z,61.79
2023-11-30T02:12:23.867Z,61.65
2023-11-30T02:12:56.424Z,61.89
2023-11-30T02:13:28.963Z,61.95
2023-11-30T02:14:06.110Z,62.04
2023-11-30T02:14:38.643Z,62.39
2023-11-30T02:15:11.202Z,62.88
2023-11-30T02:15:43.749Z,62.46
2023-11-30T02:16:16.349Z,62.04
2023-11-30T02:16:48.898Z,62.51
2023-11-30T02:17:21.454Z,62.65
2023-11-30T02:17:54.033Z,62.34
2023-11-30T02:18:26.615Z,62.17
2023-11-30T02:18:59.898Z,62.58
2023-11-30T02:19:32.442Z,62.52
2023-11-30T02:20:06.049Z,63.17
2023-11-30T02:20:38.546Z,63.26
2023-11-30T02:21:11.093Z,63.28
2023-11-30T02:21:52.973Z,64.50
2023-11-30T02:22:25.489Z,63.50
2023-11-30T02:22:58.030Z,63.88
2023-11-30T02:23:30.538Z,63.76
2023-11-30T02:24:03.334Z,64.72
2023-11-30T02:24:36.043Z,64.02
2023-11-30T02:25:09.221Z,64.05
2023-11-30T02:25:41.744Z,63.76
2023-11-30T02:26:14.248Z,63.33
2023-11-30T02:26:46.781Z,63.59
2023-11-30T02:27:19.339Z,63.61
2023-11-30T02:27:51.881Z,63.92
2023-11-30T02:28:24.405Z,63.46
2023-11-30T02:28:56.921Z,63.34
2023-11-30T02:29:29.408Z,63.96
2023-11-30T02:30:01.984Z,64.29
2023-11-30T02:30:37.286Z,63.79
2023-11-30T02:31:09.932Z,63.49
2023-11-30T02:31:43.112Z,63.65
2023-11-30T02:32:15.740Z,64.38
2023-11-30T02:32:48.252Z,64.70
2023-11-30T02:33:20.906Z,64.89
2023-11-30T02:33:53.508Z,64.20
2023-11-30T02:34:26.018Z,64.04
2023-11-30T02:34:58.542Z,64.20
2023-11-30T02:35:31.108Z,64.48
2023-11-30T02:36:04.054Z,63.85
2023-11-30T02:36:36.634Z,63.68
2023-11-30T02:37:09.154Z,63.87
2023-11-30T02:37:41.642Z,63.88
2023-11-30T02:38:14.150Z,63.70
2023-11-30T02:38:46.680Z,63.51
2023-11-30T02:39:19.253Z,63.67
2023-11-30T02:39:51.764Z,64.34
2023-11-30T02:40:24.283Z,65.04
2023-11-30T02:40:56.793Z,64.18
2023-11-30T02:41:29.994Z,64.20
2023-11-30T02:42:02.536Z,64.31
2023-11-30T02:42:35.067Z,65.02
2023-11-30T02:43:07.570Z,64.72
2023-11-30T02:43:40.087Z,64.28
2023-11-30T02:44:12.701Z,64.71
2023-11-30T02:44:45.204Z,64.26
2023-11-30T02:45:17.740Z,64.56
2023-11-30T02:45:50.330Z,64.57
2023-11-30T02:46:23.092Z,65.08
2023-11-30T02:46:55.625Z,65.29
2023-11-30T02:47:28.171Z,64.68
2023-11-30T02:48:00.853Z,64.61
2023-11-30T02:48:33.466Z,64.36
2023-11-30T02:49:06.038Z,64.41
2023-11-30T02:49:38.583Z,64.59
2023-11-30T02:50:11.092Z,65.47
2023-11-30T02:50:43.568Z,66.17
2023-11-30T02:51:16.093Z,65.91
2023-11-30T02:51:48.630Z,65.21
2023-11-30T02:52:21.289Z,64.86
2023-11-30T02:52:54.212Z,64.92
2023-11-30T02:53:26.712Z,65.24
2023-11-30T02:53:59.907Z,65.69
2023-11-30T02:54:32.532Z,65.49
2023-11-30T02:55:05.438Z,65.23
2023-11-30T02:55:37.974Z,65.39
2023-11-30T02:56:10.830Z,65.72
2023-11-30T02:56:43.433Z,65.78
2023-11-30T02:57:16.001Z,65.72
2023-11-30T02:57:49.810Z,65.61
2023-11-30T02:58:22.361Z,65.56
2023-11-30T02:58:54.853Z,65.59
2023-11-30T02:59:27.390Z,65.85
2023-11-30T02:59:59.947Z,66.11
2023-11-30T03:00:32.504Z,65.88
2023-11-30T03:01:05.210Z,65.92
2023-11-30T03:01:48.729Z,66.12
2023-11-30T03:02:21.359Z,67.08
2023-11-30T03:02:53.935Z,66.62
2023-11-30T03:03:26.563Z,66.06
2023-11-30T03:03:59.214Z,66.06
2023-11-30T03:04:31.785Z,66.78
2023-11-30T03:05:04.804Z,67.17
2023-11-30T03:05:37.367Z,66.52
2023-11-30T03:06:13.367Z,66.57
2023-11-30T03:06:50.693Z,66.73
2023-11-30T03:07:23.280Z,66.54
2023-11-30T03:07:55.892Z,66.44
2023-11-30T03:08:28.435Z,66.46
2023-11-30T03:09:00.992Z,66.40
2023-11-30T03:09:33.577Z,66.29
2023-11-30T03:10:06.783Z,66.20
2023-11-30T03:10:39.340Z,66.63
2023-11-30T03:11:11.845Z,66.57
2023-11-30T03:11:44.358Z,66.86
2023-11-30T03:12:16.896Z,67.05
2023-11-30T03:12:49.479Z,67.49
2023-11-30T03:13:21.979Z,67.36
2023-11-30T03:13:54.525Z,66.92
2023-11-30T03:14:27.018Z,66.67
2023-11-30T03:14:59.721Z,66.69
2023-11-30T03:15:32.330Z,66.97
2023-11-30T03:16:05.222Z,67.25
2023-11-30T03:16:37.794Z,67.07
2023-11-30T03:17:10.368Z,67.15
2023-11-30T03:17:42.920Z,67.28
2023-11-30T03:18:15.583Z,67.04
2023-11-30T03:18:48.270Z,67.03
2023-11-30T03:19:21.698Z,67.51
2023-11-30T03:19:54.359Z,67.26
2023-11-30T03:20:26.885Z,67.53
2023-11-30T03:20:59.452Z,67.62
2023-11-30T03:21:31.999Z,68.15
2023-11-30T03:22:04.531Z,67.74
2023-11-30T03:22:37.053Z,67.28
2023-11-30T03:23:09.554Z,67.27
2023-11-30T03:23:42.080Z,68.11
2023-11-30T03:24:14.736Z,67.57
2023-11-30T03:24:47.306Z,67.27
2023-11-30T03:25:19.846Z,67.52
2023-11-30T03:25:52.413Z,67.64
2023-11-30T03:26:24.929Z,67.36
2023-11-30T03:26:57.606Z,67.59
2023-11-30T03:27:30.162Z,68.11
2023-11-30T03:28:03.647Z,68.14
2023-11-30T03:28:36.184Z,68.19
2023-11-30T03:29:08.784Z,68.05
2023-11-30T03:29:41.935Z,68.39
2023-11-30T03:30:14.585Z,68.01
2023-11-30T03:30:47.215Z,67.87
2023-11-30T03:31:19.747Z,67.25
2023-11-30T03:31:52.308Z,67.19
2023-11-30T03:32:24.867Z,67.02
2023-11-30T03:32:57.970Z,67.43
2023-11-30T03:33:30.782Z,67.73
2023-11-30T03:34:03.726Z,67.65
2023-11-30T03:34:36.239Z,67.55
2023-11-30T03:35:08.821Z,67.45
2023-11-30T03:35:42.805Z,67.51
2023-11-30T03:36:15.366Z,67.57
2023-11-30T03:36:48.034Z,67.37
2023-11-30T03:37:20.599Z,67.16
2023-11-30T03:37:53.119Z,67.02
2023-11-30T03:38:25.649Z,67.76
2023-11-30T03:38:58.245Z,68.80
2023-11-30T03:39:30.802Z,68.40
2023-11-30T03:40:03.557Z,67.88
2023-11-30T03:40:36.081Z,67.18
2023-11-30T03:41:08.583Z,67.42
2023-11-30T03:41:41.101Z,67.32
2023-11-30T03:42:13.637Z,67.19
2023-11-30T03:42:46.155Z,67.09
2023-11-30T03:43:18.668Z,68.25
2023-11-30T03:43:51.379Z,69.03
2023-11-30T03:44:24.001Z,68.91
2023-11-30T03:44:56.634Z,68.79
2023-11-30T03:45:35.594Z,68.59
2023-11-30T03:46:08.485Z,68.21
2023-11-30T03:46:41.163Z,68.56
2023-11-30T03:47:13.711Z,69.12
2023-11-30T03:47:46.225Z,68.87
2023-11-30T03:48:18.808Z,68.63
2023-11-30T03:48:53.246Z,67.57
2023-11-30T03:49:25.783Z,67.66
2023-11-30T03:49:58.271Z,68.55
2023-11-30T03:50:30.787Z,68.47
2023-11-30T03:51:03.335Z,67.94
2023-11-30T03:51:35.928Z,67.32
2023-11-30T03:52:08.425Z,67.64
2023-11-30T03:52:41.000Z,68.41
2023-11-30T03:53:13.562Z,67.97
2023-11-30T03:53:46.096Z,67.60
2023-11-30T03:54:18.707Z,67.40
2023-11-30T03:54:51.286Z,67.74
2023-11-30T03:55:24.737Z,67.62
2023-11-30T03:55:57.284Z,67.80
2023-11-30T03:56:33.029Z,68.50
2023-11-30T03:57:05.608Z,68.09
2023-11-30T03:57:38.205Z,68.25
2023-11-30T03:58:10.692Z,68.86
2023-11-30T03:58:43.215Z,68.57
2023-11-30T03:59:15.693Z,67.70
2023-11-30T03:59:48.481Z,67.91
2023-11-30T04:00:21.507Z,68.95
2023-11-30T04:00:54.038Z,68.21
2023-11-30T04:01:27.195Z,67.64
2023-11-30T04:01:59.912Z,67.65
2023-11-30T04:02:32.671Z,68.20
2023-11-30T04:03:05.263Z,68.59
2023-11-30T04:03:37.871Z,68.26
2023-11-30T04:04:10.446Z,68.33
2023-11-30T04:04:43.363Z,68.28
2023-11-30T04:05:16.200Z,67.79
2023-11-30T04:05:48.746Z,67.97
2023-11-30T04:06:24.867Z,68.17
2023-11-30T04:06:57.440Z,67.98
2023-11-30T04:07:30.903Z,67.90
2023-11-30T04:08:03.578Z,67.85
2023-11-30T04:08:36.318Z,67.79
2023-11-30T04:09:09.888Z,67.80
2023-11-30T04:09:42.518Z,67.80
2023-11-30T04:10:15.094Z,68.04
2023-11-30T04:10:47.648Z,68.16
2023-11-30T04:11:20.196Z,67.91
2023-11-30T04:11:52.800Z,67.82
2023-11-30T04:12:25.876Z,67.97
2023-11-30T04:12:58.429Z,68.26
2023-11-30T04:13:30.919Z,69.14
2023-11-30T04:14:07.721Z,69.72
2023-11-30T04:14:40.208Z,68.57
2023-11-30T04:15:12.783Z,68.26
2023-11-30T04:15:45.300Z,68.42
2023-11-30T04:16:18.786Z,68.77
2023-11-30T04:16:51.311Z,68.59
2023-11-30T04:17:24.308Z,68.62
2023-11-30T04:17:57.132Z,68.37
2023-11-30T04:18:29.808Z,67.99
2023-11-30T04:19:02.973Z,68.07
2023-11-30T04:19:35.458Z,68.42
2023-11-30T04:20:09.633Z,68.42
2023-11-30T04:20:42.115Z,68.43
2023-11-30T04:21:14.985Z,68.25
2023-11-30T04:21:47.481Z,68.54
2023-11-30T04:22:19.967Z,68.49
2023-11-30T04:22:52.558Z,68.58
2023-11-30T04:23:25.052Z,68.47
2023-11-30T04:23:57.698Z,68.23
2023-11-30T04:24:30.625Z,68.17
2023-11-30T04:25:03.327Z,68.44
2023-11-30T04:25:35.845Z,68.60
2023-11-30T04:26:08.598Z,68.69
2023-11-30T04:26:41.112Z,68.60
2023-11-30T04:27:13.615Z,68.45
2023-11-30T04:27:46.121Z,68.46
2023-11-30T04:28:18.653Z,68.62
2023-11-30T04:28:51.183Z,69.27
2023-11-30T04:29:23.721Z,69.03
2023-11-30T04:29:56.256Z,68.87
2023-11-30T04:30:28.780Z,68.90
2023-11-30T04:31:01.835Z,69.37
2023-11-30T04:31:34.566Z,69.67
2023-11-30T04:32:07.641Z,68.87
2023-11-30T04:32:40.277Z,69.25
2023-11-30T04:33:12.864Z,69.83
2023-11-30T04:33:45.425Z,69.21
2023-11-30T04:34:19.804Z,69.48
2023-11-30T04:34:52.359Z,69.35
2023-11-30T04:35:25.116Z,69.42
2023-11-30T04:35:57.652Z,69.18
2023-11-30T04:36:30.225Z,69.31
2023-11-30T04:37:02.796Z,69.24
2023-11-30T04:37:35.337Z,69.32
2023-11-30T04:38:07.820Z,69.41
2023-11-30T04:38:40.298Z,69.71
2023-11-30T04:39:16.337Z,69.50
2023-11-30T04:39:49.626Z,69.88
2023-11-30T04:40:22.590Z,69.69
2023-11-30T04:40:55.135Z,69.51
2023-11-30T04:41:27.725Z,69.39
2023-11-30T04:42:00.310Z,69.37
2023-11-30T04:42:32.868Z,69.62
2023-11-30T04:43:05.410Z,70.00
2023-11-30T04:43:38.568Z,69.59
2023-11-30T04:44:11.192Z,69.93
2023-11-30T04:44:43.703Z,69.81
2023-11-30T04:45:16.306Z,69.91
2023-11-30T04:45:48.833Z,70.06
2023-11-30T04:46:21.780Z,69.97
2023-11-30T04:46:54.329Z,69.63
2023-11-30T04:47:26.876Z,69.95
2023-11-30T04:47:59.597Z,70.42
2023-11-30T04:48:32.303Z,70.41
2023-11-30T04:49:06.155Z,69.93
2023-11-30T04:49:38.654Z,69.96
2023-11-30T04:50:11.658Z,69.95
2023-11-30T04:50:44.225Z,70.03
2023-11-30T04:51:16.821Z,70.31
2023-11-30T04:51:49.387Z,70.34
2023-11-30T04:52:21.872Z,70.49
2023-11-30T04:52:54.344Z,70.46
2023-11-30T04:53:26.817Z,69.87
2023-11-30T04:53:59.775Z,69.90
2023-11-30T04:54:33.444Z,70.24
2023-11-30T04:55:07.386Z,70.19
2023-11-30T04:55:39.893Z,69.96
2023-11-30T04:56:12.759Z,70.10
2023-11-30T04:56:45.353Z,70.60
2023-11-30T04:57:17.998Z,70.24
2023-11-30T04:57:50.572Z,70.65
2023-11-30T04:58:23.101Z,70.68
2023-11-30T04:58:55.604Z,70.31
2023-11-30T04:59:28.141Z,70.34
2023-11-30T05:00:00.699Z,70.26
2023-11-30T05:00:33.330Z,70.39
2023-11-30T05:01:06.236Z,70.62
2023-11-30T05:01:38.874Z,70.11
2023-11-30T05:02:11.730Z,70.15
2023-11-30T05:02:56.248Z,70.11
2023-11-30T05:03:35.857Z,70.41
2023-11-30T05:04:09.764Z,70.67
2023-11-30T05:04:42.536Z,70.30
2023-11-30T05:05:15.127Z,70.18
2023-11-30T05:05:49.708Z,70.26
2023-11-30T05:06:22.246Z,70.24
2023-11-30T05:06:54.806Z,70.13
2023-11-30T05:07:27.411Z,70.20
2023-11-30T05:08:00.009Z,70.34
2023-11-30T05:08:32.537Z,70.25
2023-11-30T05:09:05.149Z,70.20
2023-11-30T05:09:37.693Z,70.08
2023-11-30T05:10:10.233Z,69.93
2023-11-30T05:10:42.754Z,69.71
2023-11-30T05:11:15.278Z,69.87
2023-11-30T05:11:47.909Z,70.16
2023-11-30T05:12:20.823Z,69.97
2023-11-30T05:12:53.349Z,69.91
2023-11-30T05:13:25.858Z,70.02
2023-11-30T05:13:58.413Z,69.71
2023-11-30T05:14:30.912Z,69.93
2023-11-30T05:15:04.247Z,69.94
2023-11-30T05:15:39.592Z,70.24
2023-11-30T05:16:12.267Z,70.52
2023-11-30T05:16:44.793Z,70.33
2023-11-30T05:17:17.286Z,70.33
2023-11-30T05:17:49.819Z,70.01
2023-11-30T05:18:22.368Z,70.46
2023-11-30T05:18:54.905Z,70.16
2023-11-30T05:19:27.412Z,69.91
2023-11-30T05:19:59.960Z,70.03
2023-11-30T05:20:32.828Z,70.25
2023-11-30T05:21:05.601Z,69.71
2023-11-30T05:21:38.157Z,70.07
2023-11-30T05:22:12.447Z,70.24
2023-11-30T05:22:46.786Z,70.72
2023-11-30T05:23:19.317Z,70.82
2023-11-30T05:23:52.431Z,70.37
2023-11-30T05:24:25.010Z,69.87
2023-11-30T05:24:57.552Z,69.97
2023-11-30T05:25:30.631Z,69.98
2023-11-30T05:26:03.226Z,70.00
2023-11-30T05:26:35.730Z,70.06
2023-11-30T05:27:08.280Z,69.83
2023-11-30T05:27:40.844Z,69.69
2023-11-30T05:28:13.363Z,69.94
2023-11-30T05:28:46.804Z,69.66
2023-11-30T05:29:19.299Z,69.70
2023-11-30T05:29:51.802Z,69.67
2023-11-30T05:30:24.306Z,70.04
2023-11-30T05:30:57.018Z,69.95
2023-11-30T05:31:29.542Z,69.83
2023-11-30T05:32:02.165Z,70.08
2023-11-30T05:32:35.110Z,70.45
2023-11-30T05:33:07.983Z,70.35
2023-11-30T05:33:40.667Z,70.48
2023-11-30T05:34:13.284Z,70.42
2023-11-30T05:34:45.861Z,69.92
2023-11-30T05:35:18.425Z,70.22
2023-11-30T05:35:51.582Z,69.79
2023-11-30T05:36:26.323Z,69.47
2023-11-30T05:36:58.880Z,69.63
2023-11-30T05:37:31.363Z,69.56
2023-11-30T05:38:08.771Z,69.60
2023-11-30T05:38:41.274Z,69.78
2023-11-30T05:39:16.523Z,69.77
2023-11-30T05:39:49.070Z,69.85
2023-11-30T05:40:21.620Z,69.95
2023-11-30T05:40:54.145Z,70.16
2023-11-30T05:41:26.647Z,70.15
2023-11-30T05:42:01.900Z,69.83
2023-11-30T05:42:34.572Z,69.79
2023-11-30T05:43:07.415Z,69.91
2023-11-30T05:43:40.071Z,70.28
2023-11-30T05:44:12.620Z,70.03
2023-11-30T05:44:45.153Z,69.85
2023-11-30T05:45:17.708Z,70.12
2023-11-30T05:45:50.270Z,70.05
2023-11-30T05:46:22.992Z,70.35
2023-11-30T05:46:55.516Z,70.18
2023-11-30T05:47:28.106Z,69.56
2023-11-30T05:48:00.718Z,69.21
2023-11-30T05:48:34.845Z,69.46
2023-11-30T05:49:07.785Z,69.84
2023-11-30T05:49:40.306Z,69.57
2023-11-30T05:50:13.821Z,69.52
2023-11-30T05:50:46.414Z,69.43
2023-11-30T05:51:19.126Z,69.29
2023-11-30T05:51:51.721Z,69.37
2023-11-30T05:52:44.535Z,69.53
2023-11-30T05:53:18.728Z,69.21
2023-11-30T05:53:52.406Z,69.33
2023-11-30T05:54:25.041Z,69.36
2023-11-30T05:54:58.784Z,69.24
2023-11-30T05:55:31.358Z,69.33
2023-11-30T05:56:04.038Z,69.16
2023-11-30T05:56:36.534Z,69.13
2023-11-30T05:57:09.137Z,69.27
2023-11-30T05:57:41.721Z,69.29
2023-11-30T05:58:14.262Z,68.66
2023-11-30T05:58:46.759Z,68.73
2023-11-30T05:59:19.248Z,69.82
2023-11-30T05:59:51.846Z,69.49
2023-11-30T06:00:24.475Z,69.05
2023-11-30T06:00:58.477Z,68.77
2023-11-30T06:01:31.048Z,68.90
2023-11-30T06:02:03.707Z,68.82
2023-11-30T06:02:36.263Z,68.22
2023-11-30T06:03:09.142Z,67.97
2023-11-30T06:03:41.941Z,68.46
2023-11-30T06:04:14.656Z,68.39
2023-11-30T06:04:54.897Z,67.95
2023-11-30T06:05:29.904Z,68.64
2023-11-30T06:06:02.476Z,68.52
2023-11-30T06:06:35.073Z,68.59
2023-11-30T06:07:07.878Z,68.78
2023-11-30T06:07:40.490Z,68.88
2023-11-30T06:08:13.169Z,68.77
2023-11-30T06:08:45.709Z,69.06
2023-11-30T06:09:18.247Z,68.45
2023-11-30T06:09:53.498Z,68.39
2023-11-30T06:10:31.441Z,68.25
2023-11-30T06:11:04.021Z,68.52
2023-11-30T06:11:37.279Z,68.16
2023-11-30T06:12:10.309Z,68.37
2023-11-30T06:12:42.955Z,68.05
2023-11-30T06:13:16.841Z,68.20
2023-11-30T06:13:49.460Z,67.76
2023-11-30T06:14:22.270Z,68.18
2023-11-30T06:14:54.780Z,68.05
2023-11-30T06:15:27.309Z,67.44
2023-11-30T06:15:59.868Z,67.29
2023-11-30T06:16:32.380Z,67.42
2023-11-30T06:17:05.079Z,67.90
2023-11-30T06:17:37.998Z,68.23
2023-11-30T06:18:10.591Z,67.52
2023-11-30T06:18:43.149Z,67.29
2023-11-30T06:19:15.685Z,67.83
2023-11-30T06:19:48.251Z,67.80
2023-11-30T06:20:20.762Z,67.68
2023-11-30T06:20:53.329Z,67.88
2023-11-30T06:21:25.945Z,68.09
2023-11-30T06:21:58.436Z,68.02
2023-11-30T06:22:30.941Z,68.52
2023-11-30T06:23:04.297Z,68.22
2023-11-30T06:23:37.419Z,68.37
2023-11-30T06:24:09.997Z,68.31
2023-11-30T06:24:42.506Z,68.39
2023-11-30T06:25:15.039Z,68.06
2023-11-30T06:25:47.578Z,67.56
2023-11-30T06:26:20.092Z,67.61
2023-11-30T06:26:52.634Z,67.79
2023-11-30T06:27:25.141Z,67.85
2023-11-30T06:27:57.729Z,68.50
2023-11-30T06:28:30.254Z,68.07
2023-11-30T06:29:02.773Z,67.87
2023-11-30T06:29:41.068Z,67.70
2023-11-30T06:30:13.828Z,67.89
2023-11-30T06:30:46.433Z,67.52
2023-11-30T06:31:18.947Z,68.10
2023-11-30T06:31:51.497Z,68.23
2023-11-30T06:32:24.025Z,68.36
2023-11-30T06:32:57.180Z,68.65
2023-11-30T06:33:29.855Z,69.01
2023-11-30T06:34:02.428Z,68.47
2023-11-30T06:34:36.201Z,68.06
2023-11-30T06:35:09.898Z,68.17
2023-11-30T06:35:44.580Z,68.41
2023-11-30T06:36:17.582Z,68.30
2023-11-30T06:36:50.143Z,68.48
2023-11-30T06:37:25.682Z,68.71
2023-11-30T06:37:58.226Z,68.21
2023-11-30T06:38:32.162Z,68.25
2023-11-30T06:41:17.685Z,68.10
2023-11-30T06:41:53.509Z,68.49
2023-11-30T06:43:30.858Z,69.58
2023-11-30T06:44:16.648Z,68.26
2023-11-30T06:44:49.384Z,68.43
2023-11-30T06:45:23.262Z,68.61
2023-11-30T06:45:55.866Z,69.06
2023-11-30T06:46:28.464Z,69.45
2023-11-30T06:47:03.892Z,69.63
2023-11-30T06:47:41.775Z,68.57
2023-11-30T06:48:14.501Z,68.37
2023-11-30T06:48:48.374Z,68.54
2023-11-30T06:49:21.651Z,69.11
2023-11-30T06:50:02.470Z,68.07
2023-11-30T06:50:47.962Z,67.34
2023-11-30T06:51:21.926Z,68.06
2023-11-30T06:52:05.158Z,68.29
2023-11-30T06:52:50.568Z,68.85
2023-11-30T06:54:24.373Z,68.89
2023-11-30T06:54:56.965Z,68.39
2023-11-30T06:55:37.201Z,68.66
2023-11-30T06:56:13.303Z,68.70
2023-11-30T06:56:45.859Z,68.84
2023-11-30T06:57:18.452Z,68.81
2023-11-30T06:57:51.016Z,69.15
2023-11-30T06:58:23.553Z,69.09
2023-11-30T06:58:56.094Z,69.13
2023-11-30T06:59:31.241Z,68.73
2023-11-30T07:00:15.360Z,68.79
2023-11-30T07:00:47.932Z,68.66
2023-11-30T07:01:25.225Z,68.78
2023-11-30T07:01:57.785Z,69.23
2023-11-30T07:02:30.336Z,69.26
2023-11-30T07:03:03.063Z,69.36
2023-11-30T07:03:42.527Z,68.56
2023-11-30T07:04:17.520Z,68.87
2023-11-30T07:04:50.243Z,69.09
2023-11-30T07:05:22.905Z,68.64
2023-11-30T07:05:55.787Z,68.99
2023-11-30T07:06:28.458Z,68.75
2023-11-30T07:07:01.336Z,69.29
2023-11-30T07:07:36.803Z,69.07
2023-11-30T07:08:10.001Z,68.54
2023-11-30T07:08:43.749Z,68.48
2023-11-30T07:09:19.140Z,69.67
2023-11-30T07:09:51.784Z,69.13
2023-11-30T07:10:24.411Z,68.59